Warroad, MN

2:48 AM CST on November 29, 2014 (GMT -0600)
Warroad International-Carlson | Change Station
CLOSE
Current Station
Airport
Location: Warroad,
Elevation: 1073 ft
Nearby Weather Stations
Active Advisory: Special Statement

Elev 1073 ft 48.94 °N, 95.35 °W | Updated 14 minutes ago

Overcast
Overcast
18 °F
Feels Like 11 °F
N
5
Wind Variable Wind from ESE

Today
High -- | Low -- °F
--% Chance of Precip.
Yesterday
High -- | Low -- °F
Precip. -- in
7:51 AM 4:27 PM
Waxing Crescent, 49% visible
Pressure 29.53 in
Visibility 10.0 miles
Clouds Overcast 2000 ft
Windchill 11 °F
Dew Point 12 °F
Humidity 79%
Rainfall 0.00 in
Snow Depth Not available.
UV 0 out of 12
Pollen .10 out of 12
Air Quality Not available.
Flu Activity Not available.
METAR KRRT 290834Z AUTO 12004KT 10SM OVC020 M08/M11 A2953 RMK AO2

More Conditions Fewer Conditions

Pressure 29.53 in
Visibility 10.0 miles
Clouds Overcast 2000 ft
Windchill 11 °F
Dew Point 12 °F
Humidity 79%
Rainfall 0.00 in
Snow Depth Not available.
UV 0 out of 12
Pollen .10 out of 12
Air Quality Not available.
Flu Activity Not available.
METAR KRRT 290834Z AUTO 12004KT 10SM OVC020 M08/M11 A2953 RMK AO2

More Conditions Fewer Conditions

10-Day Weather Forecast

Almanac

Astronomy

Nov. 29, 2014 Rise Set
Actual Time
Civil Twilight
Nautical Twilight
Astronomical Twilight
Moon
Length of Visible Light
Length of Day
Tomorrow will be .
, % of the Moon is Illuminated

Today's Extremes

State Highs State Lows

Community

WunderPhotos

Upload Photos

1,774,442 photos uploaded!

WunderBlogs® & News

Nearby

Air Quality

  Air Quality AQ Index Pollutant
Not available.

Snow Depth

Station Depth Elevation

Earthquake Activity

City Distance Mag. Time & Date
Minimum magnitude displayed is 2.5.

Coastal Water Temperatures

Place Temperature

Nearby Weather Stations